Terminal Aerodrome Forecast
Issued by NWS Louisville, KY

Home | Current Version | Previous Version | Text Only | Print | Product List | Glossary On
Versions: 1 2 3 4 5 6 7 8 9 10 11 12 13 14 15
000
FTUS43 KLMK 242300
TAFBWG
TAF
KBWG 242320Z 2500/2524 10004KT P6SM VCSH SCT060 OVC150
     FM250300 17004KT P6SM BKN050
     FM250600 17005KT 5SM -SHRA VCTS BKN015CB
     FM251400 20012G20KT P6SM BKN035=

USA.gov is the U.S. government's official web portal to all federal, state and local government web resources and services.